Terminal Aerodrome Forecast
Issued by NWS Louisville, KY

Home | Current Version | Previous Version | Text Only | Print | Product List | Glossary On
Versions: 1 2 3 4 5 6 7 8 9 10 11 12 13 14 15 16 17 18 19 20 21 22
000
FTUS43 KLMK 312200 AAA
TAFBWG
TAF AMD
KBWG 312235Z 3123/0118 24008KT P6SM SCT020 BKN040
     FM010200 18005KT P6SM BKN040
     FM011400 20011KT P6SM BKN035=

USA.gov is the U.S. government's official web portal to all federal, state and local government web resources and services.